• Join FlightAware (Why Join?)
  • Login
  • US Flag 
01:23PM EDT


 

Airport Tracker/Info


-or-


 

Live Flight TrackerFlight Track Log ✈ AKX1730 ✈ 24-Jul-2013 ✈ ROMY / MMY - ROAH / OKA

Flight Track Log - Related Links

Times and Time Zones

All times are in EDT time to prevent confusion due to time zone crossing. See the AKX1730 flight status page for this flight to view local times or setup timezone preferences in your user account.

Time Position Orientation Groundspeed Altitude Reporting Facility
EDT Latitude Longitude Course Direction KTS MPH feet Rate Location/Type
06:45AM 24.8926 125.4737 56° Northeast  Level Estimated
06:46AM 24.9475 125.5630 56° Northeast  Level Estimated
06:47AM 25.0022 125.6525 56° Northeast  Level Estimated
06:48AM 25.0569 125.7421 56° Northeast  Level Estimated
06:49AM 25.1116 125.8317 56° Northeast  Level Estimated
06:50AM 25.1662 125.9214 56° Northeast  Level Estimated
06:51AM 25.2208 126.0112 56° Northeast  Level Estimated
06:52AM 25.2753 126.1011 56° Northeast  Level Estimated
06:53AM 25.3297 126.1910 56° Northeast  Level Estimated
06:54AM 25.3841 126.2811 56° Northeast  Level Estimated
06:55AM 25.4384 126.3712 56° Northeast  Level Estimated
06:56AM 25.4927 126.4614 56° Northeast  Level Estimated
06:57AM 25.5469 126.5517 56° Northeast  Level Estimated
06:58AM 25.6011 126.6420 56° Northeast  Level Estimated
06:59AM 25.6552 126.7325 56° Northeast  Level Estimated
07:00AM 25.7093 126.8230 56° Northeast  Level Estimated
07:01AM 25.7633 126.9136 56° Northeast  Level Estimated
07:02AM 25.8172 127.0043 57° Northeast  Level Estimated
07:03AM 25.8711 127.0951 57° Northeast  Level Estimated
07:04AM 25.9249 127.1859 57° Northeast  Level Estimated
07:05AM 25.9787 127.2769 57° Northeast  Level Estimated
07:06AM 26.0324 127.3679 57° Northeast  Level Estimated
07:07AM 26.0861 127.4590 57° Northeast  Level Estimated
07:08AM 26.1397 127.5502 57° Northeast  Level Estimated
07:09AM 26.1932 127.6415 57° Northeast  Level Estimated
07:10AM 26.1958 127.6459 57° Northeast  Level Estimated
07:11AM 26.1958 127.6459 347° North  Level Estimated
07:12AM 26.1958 127.6459 347° North  Level Estimated
07:13AM 26.1958 127.6459 347° North  Level Estimated
07:14AM 26.1958 127.6459 347° North  Level Estimated
07:15AM 26.1958 127.6459 347° North  Level Estimated
07:16AM 26.1958 127.6459 347° North  Level Estimated
07:17AM 26.1958 127.6459 347° North  Level Estimated
07:18AM 26.1958 127.6459 347° North  Level Estimated
07:19AM 26.1958 127.6459 347° North  Level Estimated
07:20AM 26.1958 127.6459 347° North  Level Estimated
07:21AM 26.1958 127.6459 347° North  Level Estimated
07:22AM 26.1958 127.6459 347° North  Level Estimated
07:23AM 26.1958 127.6459 347° North  Level Estimated
07:24AM 26.1958 127.6459 347° North  Level Estimated
07:25AM 26.1958 127.6459 347° North  Level Estimated